createdAt,value
2019-02-28T00:01:43.229Z,7.30
2019-02-28T00:04:13.886Z,8.60
2019-02-28T00:06:44.166Z,7.07
2019-02-28T00:09:15.513Z,8.13
2019-02-28T00:11:45.106Z,7.67
2019-02-28T00:14:14.684Z,5.43
2019-02-28T00:16:44.271Z,7.40
2019-02-28T00:19:13.857Z,12.07
2019-02-28T00:21:43.410Z,8.47
2019-02-28T00:24:13.056Z,7.30
2019-02-28T00:26:46.476Z,7.80
2019-02-28T00:29:13.937Z,9.70
2019-02-28T00:31:49.448Z,9.53
2019-02-28T00:34:14.825Z,7.90
2019-02-28T00:36:44.442Z,14.03
2019-02-28T00:39:13.998Z,7.03
2019-02-28T00:41:44.729Z,7.03
2019-02-28T00:44:14.876Z,5.10
2019-02-28T00:46:45.408Z,5.37
2019-02-28T00:49:15.541Z,11.00
2019-02-28T00:51:46.720Z,8.37
2019-02-28T00:54:16.334Z,9.23
2019-02-28T00:56:51.377Z,7.40
2019-02-28T00:59:18.778Z,7.00
2019-02-28T01:01:48.410Z,9.43
2019-02-28T01:04:17.998Z,4.67
2019-02-28T01:06:48.685Z,10.00
2019-02-28T01:09:18.275Z,8.37
2019-02-28T01:11:47.862Z,8.47
2019-02-28T01:14:17.442Z,10.43
2019-02-28T01:16:47.026Z,9.23
2019-02-28T01:19:16.938Z,8.50
2019-02-28T01:21:46.501Z,8.23
2019-02-28T01:24:16.098Z,5.00
2019-02-28T01:26:46.715Z,7.87
2019-02-28T01:29:16.965Z,5.67
2019-02-28T01:31:46.523Z,7.00
2019-02-28T01:34:16.077Z,7.63
2019-02-28T01:36:45.882Z,5.90
2019-02-28T01:39:16.991Z,8.30
2019-02-28T01:41:46.545Z,5.93
2019-02-28T01:44:16.113Z,7.37
2019-02-28T01:46:48.511Z,5.17
2019-02-28T01:49:16.974Z,6.40
2019-02-28T01:51:46.569Z,5.87
2019-02-28T01:54:16.160Z,5.00
2019-02-28T01:56:45.747Z,6.03
2019-02-28T01:59:15.328Z,5.03
2019-02-28T02:01:44.907Z,4.27
2019-02-28T02:04:14.501Z,6.97
2019-02-28T02:06:44.913Z,5.00
2019-02-28T02:09:14.517Z,4.53
2019-02-28T02:11:44.089Z,5.03
2019-02-28T02:14:13.669Z,5.67
2019-02-28T02:16:43.245Z,5.93
2019-02-28T02:19:17.473Z,6.00
2019-02-28T02:21:44.093Z,6.13
2019-02-28T02:24:13.672Z,16.80
2019-02-28T02:26:45.253Z,5.43
2019-02-28T02:29:14.563Z,5.70
2019-02-28T02:31:44.116Z,3.97
2019-02-28T02:34:13.727Z,5.10
2019-02-28T02:36:43.353Z,4.57
2019-02-28T02:39:16.633Z,7.23
2019-02-28T02:41:44.410Z,5.60
2019-02-28T02:44:15.653Z,5.10
2019-02-28T02:46:45.208Z,5.33
2019-02-28T02:49:19.893Z,5.33
2019-02-28T02:51:50.350Z,5.00
2019-02-28T02:54:19.677Z,5.53
2019-02-28T02:56:48.686Z,4.70
2019-02-28T02:59:18.266Z,10.00
2019-02-28T03:01:47.854Z,3.73
2019-02-28T03:04:23.106Z,5.77
2019-02-28T03:06:48.719Z,6.57
2019-02-28T03:09:18.296Z,5.87
2019-02-28T03:11:47.890Z,6.33
2019-02-28T03:14:17.674Z,6.37
2019-02-28T03:16:47.720Z,5.37
2019-02-28T03:19:17.329Z,7.03
2019-02-28T03:21:51.018Z,5.77
2019-02-28T03:24:18.225Z,6.20
2019-02-28T03:26:47.865Z,6.47
2019-02-28T03:29:17.451Z,5.20
2019-02-28T03:31:55.114Z,4.47
2019-02-28T03:34:18.338Z,4.97
2019-02-28T03:36:55.231Z,7.40
2019-02-28T03:39:24.127Z,5.10
2019-02-28T03:41:52.966Z,5.20
2019-02-28T03:44:21.992Z,4.40
2019-02-28T03:46:53.049Z,7.47
2019-02-28T03:49:22.670Z,5.80
2019-02-28T03:51:52.254Z,4.57
2019-02-28T03:54:21.835Z,4.93
2019-02-28T03:56:53.185Z,5.37
2019-02-28T03:59:22.716Z,6.33
2019-02-28T04:01:52.237Z,6.07
2019-02-28T04:04:22.054Z,5.13
2019-02-28T04:06:51.718Z,5.70
2019-02-28T04:09:21.276Z,5.77
2019-02-28T04:11:50.922Z,5.53
2019-02-28T04:14:20.464Z,5.33
2019-02-28T04:16:54.086Z,7.80
2019-02-28T04:19:23.199Z,5.37
2019-02-28T04:21:54.843Z,4.80
2019-02-28T04:24:24.427Z,6.23
2019-02-28T04:26:54.055Z,7.73
2019-02-28T04:29:30.009Z,5.53
2019-02-28T04:31:54.936Z,10.43
2019-02-28T04:34:24.522Z,5.73
2019-02-28T04:36:54.084Z,5.23
2019-02-28T04:39:23.681Z,5.10
2019-02-28T04:41:53.244Z,8.43
2019-02-28T04:44:22.889Z,6.27
2019-02-28T04:46:52.495Z,5.37
2019-02-28T04:49:22.839Z,6.07
2019-02-28T04:51:53.038Z,5.40
2019-02-28T04:54:24.644Z,5.80
2019-02-28T04:56:53.902Z,5.80
2019-02-28T04:59:23.509Z,7.10
2019-02-28T05:01:54.768Z,5.00
2019-02-28T05:04:24.348Z,7.57
2019-02-28T05:06:55.915Z,4.47
2019-02-28T05:09:25.979Z,4.33
2019-02-28T05:11:55.608Z,6.87
2019-02-28T05:14:25.159Z,7.07
2019-02-28T05:16:54.776Z,4.50
2019-02-28T05:19:24.372Z,6.00
2019-02-28T05:21:54.342Z,4.90
2019-02-28T05:24:24.517Z,5.00
2019-02-28T05:26:54.042Z,6.67
2019-02-28T05:29:23.630Z,4.87
2019-02-28T05:31:53.277Z,5.30
2019-02-28T05:34:22.822Z,6.03
2019-02-28T05:36:52.440Z,4.47
2019-02-28T05:39:22.003Z,6.00
2019-02-28T05:41:51.602Z,5.30
2019-02-28T05:44:21.459Z,5.00
2019-02-28T05:46:51.630Z,4.90
2019-02-28T05:49:21.203Z,6.33
2019-02-28T05:51:50.854Z,4.53
2019-02-28T05:54:20.474Z,5.37
2019-02-28T05:56:50.218Z,5.20
2019-02-28T05:59:19.765Z,4.57
2019-02-28T06:01:49.366Z,6.13
2019-02-28T06:04:18.998Z,5.20
2019-02-28T06:06:51.480Z,5.23
2019-02-28T06:09:19.890Z,6.37
2019-02-28T06:11:49.440Z,5.37
2019-02-28T06:14:19.026Z,6.47
2019-02-28T06:16:48.607Z,4.90
2019-02-28T06:19:20.223Z,6.23
2019-02-28T06:21:49.549Z,5.30
2019-02-28T06:24:19.144Z,5.70
2019-02-28T06:26:49.451Z,4.27
2019-02-28T06:29:19.038Z,6.77
2019-02-28T06:31:49.380Z,5.03
2019-02-28T06:34:19.109Z,5.63
2019-02-28T06:36:48.776Z,4.63
2019-02-28T06:39:18.405Z,6.47
2019-02-28T06:41:48.002Z,5.03
2019-02-28T06:44:17.611Z,5.90
2019-02-28T06:46:47.239Z,5.23
2019-02-28T06:49:16.897Z,6.37
2019-02-28T06:51:48.394Z,6.67
2019-02-28T06:54:17.761Z,7.03
2019-02-28T06:56:47.402Z,5.87
2019-02-28T06:59:16.973Z,6.93
2019-02-28T07:01:46.561Z,6.77
2019-02-28T07:04:16.153Z,7.03
2019-02-28T07:06:45.750Z,6.23
2019-02-28T07:09:15.393Z,7.13
2019-02-28T07:11:45.023Z,9.40
2019-02-28T07:14:14.565Z,6.77
2019-02-28T07:16:44.151Z,9.17
2019-02-28T07:19:13.757Z,8.30
2019-02-28T07:21:44.342Z,7.20
2019-02-28T07:24:15.566Z,7.77
2019-02-28T07:26:45.229Z,7.47
2019-02-28T07:29:14.883Z,8.43
2019-02-28T07:31:44.452Z,9.00
2019-02-28T07:34:19.543Z,8.67
2019-02-28T07:36:45.861Z,9.50
2019-02-28T07:39:16.001Z,6.63
2019-02-28T07:41:45.605Z,8.13
2019-02-28T07:44:21.042Z,6.33
2019-02-28T07:46:46.461Z,8.67
2019-02-28T07:49:16.087Z,8.40
2019-02-28T07:51:45.651Z,6.67
2019-02-28T07:54:15.864Z,10.93
2019-02-28T07:56:46.620Z,10.27
2019-02-28T07:59:16.241Z,7.13
2019-02-28T08:01:45.816Z,7.43
2019-02-28T08:04:18.089Z,9.00
2019-02-28T08:06:46.720Z,7.77
2019-02-28T08:09:25.845Z,6.80
2019-02-28T08:11:56.705Z,7.43
2019-02-28T08:14:26.842Z,7.60
2019-02-28T08:16:56.532Z,7.30
2019-02-28T08:19:28.192Z,7.23
2019-02-28T08:21:58.400Z,9.70
2019-02-28T08:24:27.997Z,7.77
2019-02-28T08:26:57.580Z,6.00
2019-02-28T08:29:27.199Z,8.87
2019-02-28T08:31:57.527Z,6.80
2019-02-28T08:34:27.778Z,7.40
2019-02-28T08:36:57.634Z,9.20
2019-02-28T08:39:28.106Z,6.77
2019-02-28T08:42:02.990Z,7.37
2019-02-28T08:44:29.011Z,8.50
2019-02-28T08:46:58.591Z,8.43
2019-02-28T08:49:28.192Z,7.73
2019-02-28T08:51:57.785Z,8.63
2019-02-28T08:54:28.570Z,11.67
2019-02-28T08:56:58.174Z,5.80
2019-02-28T08:59:27.713Z,7.73
2019-02-28T09:01:58.962Z,9.20
2019-02-28T09:04:28.570Z,6.77
2019-02-28T09:06:58.133Z,7.60
2019-02-28T09:09:27.740Z,9.27
2019-02-28T09:11:58.851Z,9.97
2019-02-28T09:14:28.668Z,9.70
2019-02-28T09:16:58.227Z,8.73
2019-02-28T09:19:28.062Z,8.43
2019-02-28T09:21:57.658Z,11.37
2019-02-28T09:24:27.327Z,10.10
2019-02-28T09:26:56.954Z,11.43
2019-02-28T09:29:26.508Z,9.73
2019-02-28T09:31:56.789Z,8.97
2019-02-28T09:34:26.376Z,7.97
2019-02-28T09:36:56.851Z,9.23
2019-02-28T09:39:26.985Z,8.00
2019-02-28T09:41:58.062Z,11.93
2019-02-28T09:44:31.562Z,13.17
2019-02-28T09:46:58.954Z,9.73
2019-02-28T09:49:28.542Z,9.23
2019-02-28T09:51:58.173Z,8.40
2019-02-28T09:54:27.778Z,9.97
2019-02-28T09:56:57.702Z,8.53
2019-02-28T09:59:27.330Z,9.17
2019-02-28T10:02:01.452Z,8.07
2019-02-28T10:04:30.506Z,8.77
2019-02-28T10:07:00.592Z,10.03
2019-02-28T10:09:30.200Z,8.87
2019-02-28T10:11:59.813Z,9.63
2019-02-28T10:14:29.772Z,9.97
2019-02-28T10:17:01.472Z,8.77
2019-02-28T10:19:31.118Z,11.73
2019-02-28T10:22:00.737Z,9.97
2019-02-28T10:24:31.521Z,8.87
2019-02-28T10:27:03.462Z,10.00
2019-02-28T10:29:33.024Z,7.80
2019-02-28T10:32:02.630Z,9.30
2019-02-28T10:34:32.222Z,8.23
2019-02-28T10:37:01.822Z,9.00
2019-02-28T10:39:31.373Z,9.43
2019-02-28T10:42:01.550Z,12.03
2019-02-28T10:44:33.006Z,8.67
2019-02-28T10:47:02.578Z,8.77
2019-02-28T10:49:32.166Z,9.13
2019-02-28T10:52:01.772Z,10.53
2019-02-28T10:54:31.371Z,8.40
2019-02-28T10:57:03.112Z,8.47
2019-02-28T10:59:32.303Z,7.90
2019-02-28T11:02:01.872Z,8.40
2019-02-28T11:04:31.458Z,8.40
2019-02-28T11:07:02.207Z,7.37
2019-02-28T11:09:32.427Z,8.87
2019-02-28T11:12:02.034Z,9.07
2019-02-28T11:14:31.714Z,10.60
2019-02-28T11:17:01.343Z,9.57
2019-02-28T11:19:30.939Z,11.77
2019-02-28T11:22:01.453Z,10.37
2019-02-28T11:24:32.966Z,12.17
2019-02-28T11:27:02.590Z,13.67
2019-02-28T11:29:35.143Z,14.13
2019-02-28T11:32:03.614Z,11.60
2019-02-28T11:34:33.244Z,13.37
2019-02-28T11:37:05.481Z,11.33
2019-02-28T11:39:35.239Z,11.73
2019-02-28T11:42:04.833Z,12.63
2019-02-28T11:44:34.423Z,12.30
2019-02-28T11:47:04.031Z,13.57
2019-02-28T11:49:33.629Z,13.93
2019-02-28T11:52:03.286Z,10.40
2019-02-28T11:54:32.903Z,10.33
2019-02-28T11:57:03.032Z,10.00
2019-02-28T11:59:33.921Z,11.33
2019-02-28T12:02:03.605Z,12.70
2019-02-28T12:04:33.233Z,11.60
2019-02-28T12:07:02.866Z,10.40
2019-02-28T12:09:34.095Z,9.83
2019-02-28T12:12:03.718Z,12.37
2019-02-28T12:14:33.317Z,12.10
2019-02-28T12:17:02.981Z,10.70
2019-02-28T12:19:32.632Z,11.03
2019-02-28T12:22:02.260Z,11.07
2019-02-28T12:24:32.321Z,11.13
2019-02-28T12:27:04.174Z,10.90
2019-02-28T12:29:34.305Z,12.07
2019-02-28T12:32:04.068Z,11.47
2019-02-28T12:34:33.682Z,10.00
2019-02-28T12:37:03.289Z,10.20
2019-02-28T12:39:33.335Z,10.57
2019-02-28T12:42:04.275Z,11.27
2019-02-28T12:44:33.970Z,10.20
2019-02-28T12:47:06.463Z,11.27
2019-02-28T12:49:35.041Z,11.40
2019-02-28T12:52:04.693Z,13.33
2019-02-28T12:54:34.318Z,10.47
2019-02-28T12:57:03.995Z,9.70
2019-02-28T12:59:34.830Z,8.50
2019-02-28T13:02:08.450Z,10.43
2019-02-28T13:04:37.465Z,9.67
2019-02-28T13:07:07.031Z,8.73
2019-02-28T13:09:36.789Z,9.67
2019-02-28T13:12:08.142Z,8.50
2019-02-28T13:14:40.829Z,7.73
2019-02-28T13:17:09.108Z,10.77
2019-02-28T13:19:38.733Z,7.97
2019-02-28T13:22:08.307Z,9.33
2019-02-28T13:24:37.937Z,9.33
2019-02-28T13:27:09.799Z,11.10
2019-02-28T13:29:39.005Z,7.27
2019-02-28T13:32:08.631Z,9.13
2019-02-28T13:34:38.331Z,9.07
2019-02-28T13:37:08.754Z,5.97
2019-02-28T13:39:38.372Z,8.13
2019-02-28T13:42:07.937Z,6.30
2019-02-28T13:44:38.582Z,7.00
2019-02-28T13:47:09.852Z,7.17
2019-02-28T13:49:39.467Z,9.73
2019-02-28T13:52:09.123Z,8.53
2019-02-28T13:54:42.101Z,6.93
2019-02-28T13:57:10.283Z,8.17
2019-02-28T13:59:40.437Z,7.83
2019-02-28T14:02:10.207Z,8.90
2019-02-28T14:04:39.831Z,7.80
2019-02-28T14:07:09.407Z,7.53
2019-02-28T14:09:39.006Z,6.07
2019-02-28T14:12:08.605Z,6.03
2019-02-28T14:14:38.989Z,7.20
2019-02-28T14:17:09.613Z,5.87
2019-02-28T14:19:39.173Z,5.83
2019-02-28T14:22:11.555Z,5.80
2019-02-28T14:24:40.089Z,5.27
2019-02-28T14:27:09.803Z,8.47
2019-02-28T14:29:39.371Z,6.03
2019-02-28T14:32:09.009Z,6.97
2019-02-28T14:34:38.584Z,6.17
2019-02-28T14:37:08.191Z,5.87
2019-02-28T14:39:39.754Z,5.90
2019-02-28T14:42:09.083Z,4.17
2019-02-28T14:44:38.621Z,6.47
2019-02-28T14:47:08.343Z,8.07
2019-02-28T14:49:38.013Z,5.83
2019-02-28T14:52:07.605Z,4.80
2019-02-28T14:54:38.940Z,5.53
2019-02-28T14:57:08.580Z,6.90
2019-02-28T14:59:38.181Z,5.37
2019-02-28T15:02:07.780Z,6.70
2019-02-28T15:04:39.749Z,5.57
2019-02-28T15:07:08.681Z,6.03
2019-02-28T15:09:38.283Z,4.70
2019-02-28T15:12:08.725Z,7.23
2019-02-28T15:14:40.530Z,5.33
2019-02-28T15:17:10.846Z,7.33
2019-02-28T15:19:40.586Z,10.10
2019-02-28T15:22:10.409Z,9.97
2019-02-28T15:24:40.613Z,9.63
2019-02-28T15:27:11.581Z,5.37
2019-02-28T15:29:41.411Z,9.03
2019-02-28T15:32:14.210Z,5.67
2019-02-28T15:34:43.505Z,10.47
2019-02-28T15:37:14.264Z,8.03
2019-02-28T15:39:43.935Z,10.77
2019-02-28T15:42:13.633Z,11.97
2019-02-28T15:44:43.357Z,12.00
2019-02-28T15:47:13.374Z,6.40
2019-02-28T15:49:43.012Z,10.70
2019-02-28T15:52:13.050Z,17.10
2019-02-28T15:54:42.854Z,13.27
2019-02-28T15:57:13.838Z,8.53
